Andalusia, AL

10:36 AM CDT on September 22, 2014 (GMT -0500)
Chigger Hill off Moore Rd | Change Station
CLOSE
Current Station
Personal Weather Station
Location: Andalusia, AL
Elevation: 280 ft
Nearby Weather Stations

Elev 280 ft 31.25 °N, 86.50 °W | Updated 3 seconds ago

Clear
Clear
83.9 °F
Feels Like 90 °F
N
0.0
Wind Variable Wind from SW
Gusts 3.0 mph

Today
High -- | Low -- °F
--% Chance of Precip.
Yesterday
High -- | Low -- °F
Precip. -- in
6:35 AM 6:43 PM
Waning Crescent, 2% visible
Pressure 30.02 in
Visibility 10.0 miles
Clouds Clear
Heat Index 90 °F
Dew Point 73 °F
Humidity 69%
Rainfall 0.00 in
Snow Depth Not available.
UV 6 out of 12
Pollen 7.80 out of 12
Air Quality Not available.
Flu Activity Not available.
METAR K79J 221456Z AUTO 30004KT 10SM CLR 29/20 A3004 RMK AO2 SLP166 T02940200 50004

More Conditions Fewer Conditions

Pressure 30.02 in
Visibility 10.0 miles
Clouds Clear
Heat Index 90 °F
Dew Point 73 °F
Humidity 69%
Rainfall 0.00 in
Snow Depth Not available.
UV 6 out of 12
Pollen 7.80 out of 12
Air Quality Not available.
Flu Activity Not available.
METAR K79J 221456Z AUTO 30004KT 10SM CLR 29/20 A3004 RMK AO2 SLP166 T02940200 50004

More Conditions Fewer Conditions

10-Day Weather Forecast

Almanac

Astronomy

Sep. 22, 2014 Rise Set
Actual Time 6:35 AM CDT 6:43 PM CDT
Civil Twilight 6:10 AM CDT 7:07 PM CDT
Nautical Twilight 5:42 AM CDT 7:35 PM CDT
Astronomical Twilight 5:14 AM CDT 8:04 PM CDT
Moon 5:07 AM CDT 5:48 PM CDT
Length of Visible Light 12h 56m
Length of Day
12h 08m
Tomorrow will be 1m 52s shorter.
Waning Crescent, 2% of the Moon is Illuminated
Today
Waning Crescent
Sep 24
New
Oct 1
First Quarter
Oct 8
Full
Oct 15
Last Quarter

Today's Extremes

State Highs State Lows

Community

WunderPhotos

Upload Photos

1,755,464 photos uploaded!

Nearby

Snow Depth

Station Depth Elevation
No new snow has been reported.

Earthquake Activity

City Distance Mag. Time & Date
No recent earthquake activity has been reported nearby.
Minimum magnitude displayed is 2.5.

Coastal Water Temperatures

Place Temperature
No Stations Reporting

Nearby Weather Stations